sensor_id;sensor_type;location;lat;lon;timestamp;pressure;altitude;pressure_sealevel;temperature;humidity
23170;BME280;11753;43.144;24.714;2023-04-01T00:00:46;98579.00;;;11.15;69.41
23170;BME280;11753;43.144;24.714;2023-04-01T00:01:47;98586.25;;;11.13;69.52
23170;BME280;11753;43.144;24.714;2023-04-01T00:02:48;98581.78;;;11.13;69.42
23170;BME280;11753;43.144;24.714;2023-04-01T00:03:49;98575.38;;;11.16;69.37
23170;BME280;11753;43.144;24.714;2023-04-01T00:04:50;98572.06;;;11.14;69.29
23170;BME280;11753;43.144;24.714;2023-04-01T00:05:51;98571.72;;;11.17;69.59
23170;BME280;11753;43.144;24.714;2023-04-01T00:06:52;98575.00;;;11.19;69.24
23170;BME280;11753;43.144;24.714;2023-04-01T00:07:53;98580.53;;;11.24;69.10
23170;BME280;11753;43.144;24.714;2023-04-01T00:08:54;98581.53;;;11.23;69.03
23170;BME280;11753;43.144;24.714;2023-04-01T00:09:55;98575.53;;;11.29;68.78
23170;BME280;11753;43.144;24.714;2023-04-01T00:10:56;98583.16;;;11.24;68.90
23170;BME280;11753;43.144;24.714;2023-04-01T00:11:57;98581.53;;;11.23;68.98
23170;BME280;11753;43.144;24.714;2023-04-01T00:12:58;98567.72;;;11.21;69.12
23170;BME280;11753;43.144;24.714;2023-04-01T00:13:58;98573.16;;;11.19;69.27
23170;BME280;11753;43.144;24.714;2023-04-01T00:15:00;98572.81;;;11.22;69.13
23170;BME280;11753;43.144;24.714;2023-04-01T00:16:01;98556.81;;;11.24;69.08
23170;BME280;11753;43.144;24.714;2023-04-01T00:17:03;98552.47;;;11.31;68.79
23170;BME280;11753;43.144;24.714;2023-04-01T00:18:04;98557.00;;;11.37;68.48
23170;BME280;11753;43.144;24.714;2023-04-01T00:19:05;98557.00;;;11.37;68.47
23170;BME280;11753;43.144;24.714;2023-04-01T00:20:07;98553.16;;;11.40;68.22
23170;BME280;11753;43.144;24.714;2023-04-01T00:21:08;98549.09;;;11.37;68.08
23170;BME280;11753;43.144;24.714;2023-04-01T00:22:09;98561.25;;;11.38;68.17
23170;BME280;11753;43.144;24.714;2023-04-01T00:23:12;98542.81;;;11.38;68.16
23170;BME280;11753;43.144;24.714;2023-04-01T00:24:14;98549.72;;;11.39;68.30
23170;BME280;11753;43.144;24.714;2023-04-01T00:25:15;98551.63;;;11.45;67.93
23170;BME280;11753;43.144;24.714;2023-04-01T00:26:16;98546.16;;;11.47;67.72
23170;BME280;11753;43.144;24.714;2023-04-01T00:27:20;98551.00;;;11.43;68.07
23170;BME280;11753;43.144;24.714;2023-04-01T00:28:21;98546.16;;;11.47;67.91
23170;BME280;11753;43.144;24.714;2023-04-01T00:29:25;98542.81;;;11.38;68.30
23170;BME280;11753;43.144;24.714;2023-04-01T00:30:29;98543.00;;;11.37;68.45
23170;BME280;11753;43.144;24.714;2023-04-01T00:31:30;98547.72;;;11.41;68.34
23170;BME280;11753;43.144;24.714;2023-04-01T00:32:31;98545.66;;;11.37;68.29
23170;BME280;11753;43.144;24.714;2023-04-01T00:33:32;98540.00;;;11.40;68.16
23170;BME280;11753;43.144;24.714;2023-04-01T00:34:33;98547.91;;;11.25;68.55
23170;BME280;11753;43.144;24.714;2023-04-01T00:35:33;98544.44;;;11.39;68.27
23170;BME280;11753;43.144;24.714;2023-04-01T00:36:34;98553.38;;;11.38;68.02
23170;BME280;11753;43.144;24.714;2023-04-01T00:37:38;98541.19;;;11.37;68.25
23170;BME280;11753;43.144;24.714;2023-04-01T00:38:39;98539.72;;;11.35;68.12
23170;BME280;11753;43.144;24.714;2023-04-01T00:39:41;98545.47;;;11.38;68.15
23170;BME280;11753;43.144;24.714;2023-04-01T00:40:44;98542.81;;;11.38;67.90
23170;BME280;11753;43.144;24.714;2023-04-01T00:41:46;98537.75;;;11.37;68.35
23170;BME280;11753;43.144;24.714;2023-04-01T00:42:47;98544.84;;;11.36;68.21
23170;BME280;11753;43.144;24.714;2023-04-01T00:43:49;98542.81;;;11.38;68.04
23170;BME280;11753;43.144;24.714;2023-04-01T00:44:53;98539.25;;;11.46;67.73
23170;BME280;11753;43.144;24.714;2023-04-01T00:45:54;98540.50;;;11.50;67.52
23170;BME280;11753;43.144;24.714;2023-04-01T00:46:56;98539.19;;;11.39;67.88
23170;BME280;11753;43.144;24.714;2023-04-01T00:47:59;98535.94;;;11.37;68.32
23170;BME280;11753;43.144;24.714;2023-04-01T00:49:01;98535.53;;;11.40;68.12
23170;BME280;11753;43.144;24.714;2023-04-01T00:50:02;98521.50;;;11.54;67.38
23170;BME280;11753;43.144;24.714;2023-04-01T00:52:11;98527.91;;;11.45;67.67
23170;BME280;11753;43.144;24.714;2023-04-01T00:53:12;98534.00;;;11.46;67.73
23170;BME280;11753;43.144;24.714;2023-04-01T00:54:14;98516.09;;;11.41;67.67
23170;BME280;11753;43.144;24.714;2023-04-01T00:55:18;98520.75;;;11.39;67.88
23170;BME280;11753;43.144;24.714;2023-04-01T00:56:24;98519.94;;;11.39;67.86
23170;BME280;11753;43.144;24.714;2023-04-01T00:57:31;98519.00;;;11.46;67.56
23170;BME280;11753;43.144;24.714;2023-04-01T00:58:36;98523.06;;;11.49;67.53
23170;BME280;11753;43.144;24.714;2023-04-01T00:59:43;98522.00;;;11.43;67.73
23170;BME280;11753;43.144;24.714;2023-04-01T01:00:46;98513.34;;;11.49;67.55
23170;BME280;11753;43.144;24.714;2023-04-01T01:01:48;98516.78;;;11.50;67.39
23170;BME280;11753;43.144;24.714;2023-04-01T01:02:50;98518.69;;;11.56;67.27
23170;BME280;11753;43.144;24.714;2023-04-01T01:03:51;98525.97;;;11.54;67.35
23170;BME280;11753;43.144;24.714;2023-04-01T01:04:52;98512.38;;;11.50;67.24
23170;BME280;11753;43.144;24.714;2023-04-01T01:06:35;98517.06;;;11.55;67.30
23170;BME280;11753;43.144;24.714;2023-04-01T01:11:25;98506.00;;;11.45;67.73
23170;BME280;11753;43.144;24.714;2023-04-01T01:13:49;98507.91;;;11.51;67.34
23170;BME280;11753;43.144;24.714;2023-04-01T01:15:16;98507.53;;;11.54;67.26
23170;BME280;11753;43.144;24.714;2023-04-01T01:16:25;98500.81;;;11.51;67.23
23170;BME280;11753;43.144;24.714;2023-04-01T01:18:48;98504.69;;;11.55;66.85
23170;BME280;11753;43.144;24.714;2023-04-01T01:21:42;98503.34;;;11.60;66.62
23170;BME280;11753;43.144;24.714;2023-04-01T01:25:23;98497.69;;;11.63;66.53
23170;BME280;11753;43.144;24.714;2023-04-01T01:26:46;98499.69;;;11.61;66.67
23170;BME280;11753;43.144;24.714;2023-04-01T01:28:00;98489.91;;;11.54;66.68
23170;BME280;11753;43.144;24.714;2023-04-01T01:29:28;98489.53;;;11.57;66.74
23170;BME280;11753;43.144;24.714;2023-04-01T01:31:55;98486.25;;;11.55;66.91
23170;BME280;11753;43.144;24.714;2023-04-01T01:33:19;98483.00;;;11.53;66.96
23170;BME280;11753;43.144;24.714;2023-04-01T01:35:41;98491.53;;;11.55;66.79
23170;BME280;11753;43.144;24.714;2023-04-01T01:36:45;98480.97;;;11.55;66.84
23170;BME280;11753;43.144;24.714;2023-04-01T01:37:53;98483.38;;;11.50;67.02
23170;BME280;11753;43.144;24.714;2023-04-01T01:38:56;98484.13;;;11.44;67.13
23170;BME280;11753;43.144;24.714;2023-04-01T01:40:06;98484.53;;;11.48;67.18
23170;BME280;11753;43.144;24.714;2023-04-01T01:41:09;98486.00;;;11.50;67.30
23170;BME280;11753;43.144;24.714;2023-04-01T01:42:13;98476.84;;;11.46;67.38
23170;BME280;11753;43.144;24.714;2023-04-01T01:43:18;98482.38;;;11.51;67.32
23170;BME280;11753;43.144;24.714;2023-04-01T01:44:21;98484.63;;;11.54;67.02
23170;BME280;11753;43.144;24.714;2023-04-01T01:45:24;98472.38;;;11.47;67.15
23170;BME280;11753;43.144;24.714;2023-04-01T01:46:27;98476.84;;;11.46;67.34
23170;BME280;11753;43.144;24.714;2023-04-01T01:47:29;98472.56;;;11.45;67.19
23170;BME280;11753;43.144;24.714;2023-04-01T01:48:33;98473.81;;;11.49;67.17
23170;BME280;11753;43.144;24.714;2023-04-01T01:49:35;98477.66;;;11.47;67.31
23170;BME280;11753;43.144;24.714;2023-04-01T01:50:38;98475.22;;;11.45;67.08
23170;BME280;11753;43.144;24.714;2023-04-01T01:51:39;98466.69;;;11.43;67.25
23170;BME280;11753;43.144;24.714;2023-04-01T01:52:40;98463.41;;;11.41;67.42
23170;BME280;11753;43.144;24.714;2023-04-01T01:53:43;98462.03;;;11.45;67.46
23170;BME280;11753;43.144;24.714;2023-04-01T01:55:49;98467.66;;;11.42;67.35
23170;BME280;11753;43.144;24.714;2023-04-01T01:56:55;98461.41;;;11.43;67.03
23170;BME280;11753;43.144;24.714;2023-04-01T01:58:16;98466.69;;;11.43;67.13
23170;BME280;11753;43.144;24.714;2023-04-01T01:59:20;98464.28;;;11.48;66.95
23170;BME280;11753;43.144;24.714;2023-04-01T02:00:21;98465.22;;;11.41;66.98
23170;BME280;11753;43.144;24.714;2023-04-01T02:01:28;98462.22;;;11.44;67.00
23170;BME280;11753;43.144;24.714;2023-04-01T02:02:31;98467.91;;;11.47;66.86
23170;BME280;11753;43.144;24.714;2023-04-01T02:03:35;98460.41;;;11.44;67.04
23170;BME280;11753;43.144;24.714;2023-04-01T02:04:39;98469.31;;;11.43;67.06
23170;BME280;11753;43.144;24.714;2023-04-01T02:05:41;98455.88;;;11.38;67.20
23170;BME280;11753;43.144;24.714;2023-04-01T02:06:47;98458.88;;;11.35;67.34
23170;BME280;11753;43.144;24.714;2023-04-01T02:08:04;98462.06;;;11.30;67.62
23170;BME280;11753;43.144;24.714;2023-04-01T02:09:08;98452.63;;;11.36;67.53
23170;BME280;11753;43.144;24.714;2023-04-01T02:10:13;98453.97;;;11.32;67.22
23170;BME280;11753;43.144;24.714;2023-04-01T02:11:19;98453.97;;;11.32;67.33
23170;BME280;11753;43.144;24.714;2023-04-01T02:12:23;98456.34;;;11.27;67.57
23170;BME280;11753;43.144;24.714;2023-04-01T02:13:40;98455.72;;;11.25;68.12
23170;BME280;11753;43.144;24.714;2023-04-01T02:15:09;98458.16;;;11.26;67.84
23170;BME280;11753;43.144;24.714;2023-04-01T02:16:20;98460.00;;;11.26;67.73
23170;BME280;11753;43.144;24.714;2023-04-01T02:17:29;98458.09;;;11.20;67.85
23170;BME280;11753;43.144;24.714;2023-04-01T02:18:33;98458.09;;;11.20;68.04
23170;BME280;11753;43.144;24.714;2023-04-01T02:20:53;98460.00;;;11.26;67.76
23170;BME280;11753;43.144;24.714;2023-04-01T02:22:01;98457.84;;;11.15;68.11
23170;BME280;11753;43.144;24.714;2023-04-01T02:23:04;98461.84;;;11.11;68.32
23170;BME280;11753;43.144;24.714;2023-04-01T02:24:12;98461.47;;;11.14;68.27
23170;BME280;11753;43.144;24.714;2023-04-01T02:25:18;98458.91;;;11.20;68.01
23170;BME280;11753;43.144;24.714;2023-04-01T02:26:20;98455.47;;;11.20;68.12
23170;BME280;11753;43.144;24.714;2023-04-01T02:27:21;98451.38;;;11.17;68.03
23170;BME280;11753;43.144;24.714;2023-04-01T02:28:23;98453.81;;;11.19;68.15
23170;BME280;11753;43.144;24.714;2023-04-01T02:29:25;98450.19;;;11.20;67.85
23170;BME280;11753;43.144;24.714;2023-04-01T02:30:29;98453.81;;;11.19;68.03
23170;BME280;11753;43.144;24.714;2023-04-01T02:31:30;98448.94;;;11.16;68.21
23170;BME280;11753;43.144;24.714;2023-04-01T02:32:33;98440.03;;;11.17;68.02
23170;BME280;11753;43.144;24.714;2023-04-01T02:33:40;98447.94;;;11.17;68.08
23170;BME280;11753;43.144;24.714;2023-04-01T02:34:42;98443.03;;;11.14;68.00
23170;BME280;11753;43.144;24.714;2023-04-01T02:35:44;98438.75;;;11.13;68.20
23170;BME280;11753;43.144;24.714;2023-04-01T02:36:44;98443.22;;;11.12;68.23
23170;BME280;11753;43.144;24.714;2023-04-01T02:37:49;98445.22;;;11.10;68.42
23170;BME280;11753;43.144;24.714;2023-04-01T02:38:51;98441.50;;;11.05;68.51
23170;BME280;11753;43.144;24.714;2023-04-01T02:39:52;98438.88;;;11.05;68.69
23170;BME280;11753;43.144;24.714;2023-04-01T02:40:58;98431.78;;;11.05;68.51
23170;BME280;11753;43.144;24.714;2023-04-01T02:42:00;98436.31;;;11.11;68.40
23170;BME280;11753;43.144;24.714;2023-04-01T02:43:01;98437.06;;;11.05;68.44
23170;BME280;11753;43.144;24.714;2023-04-01T02:44:01;98430.84;;;11.13;68.48
23170;BME280;11753;43.144;24.714;2023-04-01T02:45:03;98428.88;;;11.15;67.82
23170;BME280;11753;43.144;24.714;2023-04-01T02:46:06;98424.44;;;11.15;67.98
23170;BME280;11753;43.144;24.714;2023-04-01T02:47:07;98426.97;;;11.09;68.19
23170;BME280;11753;43.144;24.714;2023-04-01T02:48:08;98430.22;;;11.11;68.32
23170;BME280;11753;43.144;24.714;2023-04-01T02:49:09;98423.03;;;11.19;67.84
23170;BME280;11753;43.144;24.714;2023-04-01T02:50:11;98429.13;;;11.20;67.91
23170;BME280;11753;43.144;24.714;2023-04-01T02:51:11;98423.31;;;11.24;67.75
23170;BME280;11753;43.144;24.714;2023-04-01T02:52:12;98420.13;;;11.29;67.68
23170;BME280;11753;43.144;24.714;2023-04-01T02:53:13;98427.56;;;11.25;67.71
23170;BME280;11753;43.144;24.714;2023-04-01T02:54:14;98426.75;;;11.25;67.98
23170;BME280;11753;43.144;24.714;2023-04-01T02:55:15;98426.19;;;11.29;67.67
23170;BME280;11753;43.144;24.714;2023-04-01T02:56:15;98417.66;;;11.27;67.33
23170;BME280;11753;43.144;24.714;2023-04-01T02:57:16;98417.72;;;11.34;67.03
23170;BME280;11753;43.144;24.714;2023-04-01T02:58:17;98416.78;;;11.42;66.89
23170;BME280;11753;43.144;24.714;2023-04-01T02:59:18;98419.00;;;11.38;66.84
23170;BME280;11753;43.144;24.714;2023-04-01T03:00:19;98415.53;;;11.38;67.01
23170;BME280;11753;43.144;24.714;2023-04-01T03:01:20;98418.41;;;11.43;66.94
23170;BME280;11753;43.144;24.714;2023-04-01T03:02:21;98408.31;;;11.46;66.86
23170;BME280;11753;43.144;24.714;2023-04-01T03:03:22;98406.50;;;11.47;66.60
23170;BME280;11753;43.144;24.714;2023-04-01T03:04:23;98410.56;;;11.49;66.60
23170;BME280;11753;43.144;24.714;2023-04-01T03:05:25;98402.13;;;11.54;66.38
23170;BME280;11753;43.144;24.714;2023-04-01T03:06:26;98410.22;;;11.52;66.43
23170;BME280;11753;43.144;24.714;2023-04-01T03:07:28;98407.56;;;11.52;66.16
23170;BME280;11753;43.144;24.714;2023-04-01T03:08:29;98417.53;;;11.57;66.27
23170;BME280;11753;43.144;24.714;2023-04-01T03:09:30;98417.38;;;11.58;66.07
23170;BME280;11753;43.144;24.714;2023-04-01T03:10:31;98416.09;;;11.54;66.16
23170;BME280;11753;43.144;24.714;2023-04-01T03:11:31;98415.34;;;11.61;66.12
23170;BME280;11753;43.144;24.714;2023-04-01T03:12:32;98421.00;;;11.57;65.86
23170;BME280;11753;43.144;24.714;2023-04-01T03:13:33;98418.38;;;11.57;65.97
23170;BME280;11753;43.144;24.714;2023-04-01T03:14:33;98424.00;;;11.54;65.97
23170;BME280;11753;43.144;24.714;2023-04-01T03:15:34;98417.09;;;11.53;65.82
23170;BME280;11753;43.144;24.714;2023-04-01T03:16:35;98410.22;;;11.52;66.11
23170;BME280;11753;43.144;24.714;2023-04-01T03:17:36;98406.75;;;11.52;66.21
23170;BME280;11753;43.144;24.714;2023-04-01T03:18:37;98407.56;;;11.52;66.16
23170;BME280;11753;43.144;24.714;2023-04-01T03:19:40;98404.56;;;11.55;66.09
23170;BME280;11753;43.144;24.714;2023-04-01T03:20:41;98406.19;;;11.56;66.09
23170;BME280;11753;43.144;24.714;2023-04-01T03:21:41;98414.34;;;11.62;65.69
23170;BME280;11753;43.144;24.714;2023-04-01T03:22:43;98414.53;;;11.60;65.67
23170;BME280;11753;43.144;24.714;2023-04-01T03:23:44;98405.19;;;11.57;65.76
23170;BME280;11753;43.144;24.714;2023-04-01T03:24:45;98413.78;;;11.66;65.40
23170;BME280;11753;43.144;24.714;2023-04-01T03:25:46;98410.97;;;11.68;65.29
23170;BME280;11753;43.144;24.714;2023-04-01T03:26:49;98405.69;;;11.68;65.25
23170;BME280;11753;43.144;24.714;2023-04-01T03:27:51;98413.19;;;11.71;65.18
23170;BME280;11753;43.144;24.714;2023-04-01T03:28:52;98411.22;;;11.73;65.30
23170;BME280;11753;43.144;24.714;2023-04-01T03:29:52;98408.94;;;11.70;65.30
23170;BME280;11753;43.144;24.714;2023-04-01T03:30:53;98412.22;;;11.72;65.19
23170;BME280;11753;43.144;24.714;2023-04-01T03:31:53;98400.84;;;11.71;65.17
23170;BME280;11753;43.144;24.714;2023-04-01T03:32:55;98407.19;;;11.77;65.04
23170;BME280;11753;43.144;24.714;2023-04-01T03:33:56;98404.53;;;11.77;64.96
23170;BME280;11753;43.144;24.714;2023-04-01T03:34:57;98407.47;;;11.82;64.78
23170;BME280;11753;43.144;24.714;2023-04-01T03:35:58;98411.16;;;11.88;64.64
23170;BME280;11753;43.144;24.714;2023-04-01T03:36:59;98412.72;;;11.82;64.67
23170;BME280;11753;43.144;24.714;2023-04-01T03:38:01;98415.09;;;11.77;64.65
23170;BME280;11753;43.144;24.714;2023-04-01T03:39:03;98412.44;;;11.77;64.74
23170;BME280;11753;43.144;24.714;2023-04-01T03:40:05;98411.63;;;11.76;64.85
23170;BME280;11753;43.144;24.714;2023-04-01T03:41:06;98403.09;;;11.74;64.87
23170;BME280;11753;43.144;24.714;2023-04-01T03:42:10;98404.72;;;11.75;64.77
23170;BME280;11753;43.144;24.714;2023-04-01T03:43:11;98407.19;;;11.77;64.92
23170;BME280;11753;43.144;24.714;2023-04-01T03:44:12;98403.81;;;11.83;65.00
23170;BME280;11753;43.144;24.714;2023-04-01T03:45:13;98403.81;;;11.83;64.82
23170;BME280;11753;43.144;24.714;2023-04-01T03:46:18;98414.34;;;11.83;64.92
23170;BME280;11753;43.144;24.714;2023-04-01T03:47:19;98409.97;;;11.90;64.87
23170;BME280;11753;43.144;24.714;2023-04-01T03:48:20;98403.06;;;11.89;64.70
23170;BME280;11753;43.144;24.714;2023-04-01T03:49:21;98413.59;;;11.89;64.90
23170;BME280;11753;43.144;24.714;2023-04-01T03:50:25;98410.72;;;11.84;65.11
23170;BME280;11753;43.144;24.714;2023-04-01T03:51:26;98404.63;;;11.83;64.97
23170;BME280;11753;43.144;24.714;2023-04-01T03:52:27;98409.34;;;11.88;64.92
23170;BME280;11753;43.144;24.714;2023-04-01T03:53:28;98411.59;;;11.91;64.85
23170;BME280;11753;43.144;24.714;2023-04-01T03:54:30;98412.22;;;11.93;64.83
23170;BME280;11753;43.144;24.714;2023-04-01T03:55:31;98411.84;;;11.96;64.63
23170;BME280;11753;43.144;24.714;2023-04-01T03:56:32;98410.88;;;12.04;64.45
23170;BME280;11753;43.144;24.714;2023-04-01T03:57:33;98403.91;;;11.96;64.45
23170;BME280;11753;43.144;24.714;2023-04-01T03:58:34;98405.56;;;11.97;64.33
23170;BME280;11753;43.144;24.714;2023-04-01T03:59:35;98414.66;;;11.95;64.46
23170;BME280;11753;43.144;24.714;2023-04-01T04:00:36;98417.09;;;11.96;64.42
23170;BME280;11753;43.144;24.714;2023-04-01T04:01:36;98415.47;;;11.95;64.58
23170;BME280;11753;43.144;24.714;2023-04-01T04:02:37;98421.81;;;12.01;64.58
23170;BME280;11753;43.144;24.714;2023-04-01T04:03:37;98422.69;;;12.08;63.93
23170;BME280;11753;43.144;24.714;2023-04-01T04:04:39;98415.34;;;12.03;64.14
23170;BME280;11753;43.144;24.714;2023-04-01T04:05:49;98409.31;;;12.09;64.11
23170;BME280;11753;43.144;24.714;2023-04-01T04:06:50;98406.81;;;12.01;64.33
23170;BME280;11753;43.144;24.714;2023-04-01T04:07:52;98407.63;;;12.02;64.06
23170;BME280;11753;43.144;24.714;2023-04-01T04:08:53;98403.91;;;11.96;64.31
23170;BME280;11753;43.144;24.714;2023-04-01T04:09:54;98402.34;;;12.02;64.04
23170;BME280;11753;43.144;24.714;2023-04-01T04:10:56;98404.78;;;12.03;64.04
23170;BME280;11753;43.144;24.714;2023-04-01T04:11:57;98406.66;;;12.09;63.79
23170;BME280;11753;43.144;24.714;2023-04-01T04:12:58;98390.22;;;12.07;63.89
23170;BME280;11753;43.144;24.714;2023-04-01T04:13:59;98402.75;;;12.05;63.89
23170;BME280;11753;43.144;24.714;2023-04-01T04:15:00;98395.25;;;12.02;64.09
23170;BME280;11753;43.144;24.714;2023-04-01T04:16:01;98406.41;;;12.04;64.07
23170;BME280;11753;43.144;24.714;2023-04-01T04:17:02;98399.91;;;12.00;64.25
23170;BME280;11753;43.144;24.714;2023-04-01T04:18:03;98403.16;;;12.02;64.11
23170;BME280;11753;43.144;24.714;2023-04-01T04:19:04;98401.53;;;12.01;64.27
23170;BME280;11753;43.144;24.714;2023-04-01T04:20:06;98390.44;;;12.12;63.89
23170;BME280;11753;43.144;24.714;2023-04-01T04:21:06;98402.41;;;12.08;63.90
23170;BME280;11753;43.144;24.714;2023-04-01T04:22:07;98400.38;;;12.10;63.90
23170;BME280;11753;43.144;24.714;2023-04-01T04:23:08;98396.47;;;12.06;64.08
23170;BME280;11753;43.144;24.714;2023-04-01T04:24:09;98400.13;;;12.05;64.11
23170;BME280;11753;43.144;24.714;2023-04-01T04:25:10;98402.53;;;12.00;64.09
23170;BME280;11753;43.144;24.714;2023-04-01T04:26:13;98388.97;;;12.03;64.16
23170;BME280;11753;43.144;24.714;2023-04-01T04:27:14;98403.22;;;12.09;64.08
23170;BME280;11753;43.144;24.714;2023-04-01T04:28:15;98396.72;;;12.11;63.74
23170;BME280;11753;43.144;24.714;2023-04-01T04:29:16;98388.19;;;12.09;63.57
23170;BME280;11753;43.144;24.714;2023-04-01T04:30:17;98394.09;;;12.11;63.53
23170;BME280;11753;43.144;24.714;2023-04-01T04:31:24;98395.09;;;12.10;63.64
23170;BME280;11753;43.144;24.714;2023-04-01T04:32:26;98404.38;;;12.06;63.55
23170;BME280;11753;43.144;24.714;2023-04-01T04:33:27;98402.00;;;12.11;63.49
23170;BME280;11753;43.144;24.714;2023-04-01T04:34:29;98396.34;;;12.15;63.25
23170;BME280;11753;43.144;24.714;2023-04-01T04:35:30;98389.06;;;12.17;63.33
23170;BME280;11753;43.144;24.714;2023-04-01T04:36:30;98397.22;;;12.22;63.05
23170;BME280;11753;43.144;24.714;2023-04-01T04:37:31;98402.50;;;12.28;62.75
23170;BME280;11753;43.144;24.714;2023-04-01T04:38:32;98400.94;;;12.34;62.65
23170;BME280;11753;43.144;24.714;2023-04-01T04:39:32;98400.56;;;12.37;62.43
23170;BME280;11753;43.144;24.714;2023-04-01T04:40:39;98400.56;;;12.37;62.51
23170;BME280;11753;43.144;24.714;2023-04-01T04:41:41;98401.78;;;12.41;62.21
23170;BME280;11753;43.144;24.714;2023-04-01T04:42:42;98403.03;;;12.45;62.26
23170;BME280;11753;43.144;24.714;2023-04-01T04:43:49;98401.31;;;12.31;62.73
23170;BME280;11753;43.144;24.714;2023-04-01T04:44:51;98401.38;;;12.37;62.53
23170;BME280;11753;43.144;24.714;2023-04-01T04:45:52;98404.22;;;12.43;62.25
23170;BME280;11753;43.144;24.714;2023-04-01T04:46:53;98398.94;;;12.36;62.46
23170;BME280;11753;43.144;24.714;2023-04-01T04:47:53;98405.06;;;12.43;62.36
23170;BME280;11753;43.144;24.714;2023-04-01T04:48:55;98401.78;;;12.41;62.56
23170;BME280;11753;43.144;24.714;2023-04-01T04:49:56;98402.44;;;12.43;62.68
23170;BME280;11753;43.144;24.714;2023-04-01T04:50:56;98394.31;;;12.45;62.29
23170;BME280;11753;43.144;24.714;2023-04-01T04:51:57;98403.03;;;12.45;62.38
23170;BME280;11753;43.144;24.714;2023-04-01T04:52:58;98405.28;;;12.48;62.15
23170;BME280;11753;43.144;24.714;2023-04-01T04:54:00;98396.16;;;12.51;62.12
23170;BME280;11753;43.144;24.714;2023-04-01T04:55:00;98404.09;;;12.51;61.90
23170;BME280;11753;43.144;24.714;2023-04-01T04:56:01;98397.84;;;12.58;61.71
23170;BME280;11753;43.144;24.714;2023-04-01T04:57:02;98394.75;;;12.55;61.71
23170;BME280;11753;43.144;24.714;2023-04-01T04:58:03;98398.22;;;12.55;61.83
23170;BME280;11753;43.144;24.714;2023-04-01T04:59:04;98397.34;;;12.48;61.83
23170;BME280;11753;43.144;24.714;2023-04-01T05:00:07;98405.50;;;12.53;62.03
23170;BME280;11753;43.144;24.714;2023-04-01T05:01:13;98399.66;;;12.58;61.72
23170;BME280;11753;43.144;24.714;2023-04-01T05:02:14;98403.97;;;12.65;61.47
23170;BME280;11753;43.144;24.714;2023-04-01T05:03:15;98404.81;;;12.73;61.14
23170;BME280;11753;43.144;24.714;2023-04-01T05:04:16;98395.66;;;12.75;61.06
23170;BME280;11753;43.144;24.714;2023-04-01T05:05:17;98408.47;;;12.72;61.06
23170;BME280;11753;43.144;24.714;2023-04-01T05:06:19;98406.44;;;12.74;61.05
23170;BME280;11753;43.144;24.714;2023-04-01T05:07:20;98408.47;;;12.78;60.64
23170;BME280;11753;43.144;24.714;2023-04-01T05:08:20;98401.19;;;12.80;60.52
23170;BME280;11753;43.144;24.714;2023-04-01T05:09:21;98402.38;;;12.78;60.49
23170;BME280;11753;43.144;24.714;2023-04-01T05:10:22;98401.59;;;12.84;60.60
23170;BME280;11753;43.144;24.714;2023-04-01T05:11:23;98403.22;;;12.85;60.63
23170;BME280;11753;43.144;24.714;2023-04-01T05:12:24;98403.84;;;12.87;60.47
23170;BME280;11753;43.144;24.714;2023-04-01T05:13:25;98405.44;;;12.81;60.69
23170;BME280;11753;43.144;24.714;2023-04-01T05:14:26;98395.09;;;12.80;60.77
23170;BME280;11753;43.144;24.714;2023-04-01T05:15:27;98401.56;;;12.77;60.98
23170;BME280;11753;43.144;24.714;2023-04-01T05:16:28;98398.34;;;12.82;60.88
23170;BME280;11753;43.144;24.714;2023-04-01T05:17:29;98388.56;;;12.76;61.19
23170;BME280;11753;43.144;24.714;2023-04-01T05:18:30;98394.84;;;12.75;61.12
23170;BME280;11753;43.144;24.714;2023-04-01T05:19:31;98385.91;;;12.76;61.05
23170;BME280;11753;43.144;24.714;2023-04-01T05:20:32;98390.19;;;12.77;61.36
23170;BME280;11753;43.144;24.714;2023-04-01T05:21:32;98388.59;;;12.82;61.04
23170;BME280;11753;43.144;24.714;2023-04-01T05:22:33;98391.47;;;12.87;61.04
23170;BME280;11753;43.144;24.714;2023-04-01T05:23:34;98394.72;;;12.89;60.96
23170;BME280;11753;43.144;24.714;2023-04-01T05:24:35;98396.34;;;12.90;61.17
23170;BME280;11753;43.144;24.714;2023-04-01T05:25:37;98393.13;;;12.95;61.27
23170;BME280;11753;43.144;24.714;2023-04-01T05:26:38;98395.97;;;13.00;61.22
23170;BME280;11753;43.144;24.714;2023-04-01T05:27:39;98395.56;;;13.03;61.46
23170;BME280;11753;43.144;24.714;2023-04-01T05:28:41;98398.44;;;13.08;61.77
23170;BME280;11753;43.144;24.714;2023-04-01T05:29:42;98392.13;;;13.09;61.98
23170;BME280;11753;43.144;24.714;2023-04-01T05:30:43;98394.97;;;13.14;61.96
23170;BME280;11753;43.144;24.714;2023-04-01T05:31:44;98394.97;;;13.14;62.07
23170;BME280;11753;43.144;24.714;2023-04-01T05:32:46;98388.94;;;13.20;62.16
23170;BME280;11753;43.144;24.714;2023-04-01T05:33:47;98392.38;;;13.21;62.47
23170;BME280;11753;43.144;24.714;2023-04-01T05:34:50;98398.72;;;13.27;62.99
23170;BME280;11753;43.144;24.714;2023-04-01T05:35:51;98391.81;;;13.26;63.21
23170;BME280;11753;43.144;24.714;2023-04-01T05:36:52;98385.72;;;13.32;63.38
23170;BME280;11753;43.144;24.714;2023-04-01T05:37:53;98390.00;;;13.33;62.94
23170;BME280;11753;43.144;24.714;2023-04-01T05:38:55;98381.88;;;13.41;62.62
23170;BME280;11753;43.144;24.714;2023-04-01T05:39:56;98380.25;;;13.40;62.96
23170;BME280;11753;43.144;24.714;2023-04-01T05:41:00;98388.38;;;13.38;63.48
23170;BME280;11753;43.144;24.714;2023-04-01T05:42:02;98386.34;;;13.47;63.62
23170;BME280;11753;43.144;24.714;2023-04-01T05:43:03;98388.59;;;13.57;64.69
23170;BME280;11753;43.144;24.714;2023-04-01T05:44:04;98375.38;;;13.63;65.53
23170;BME280;11753;43.144;24.714;2023-04-01T05:45:06;98382.94;;;13.73;66.53